Time;durP1;ratioP1;P1;durP2;ratioP2;P2;SDS_P1;SDS_P2;PMS_P1;PMS_P2;Temp;Humidity;BMP_temperature;BMP_pressure;BME280_temperature;BME280_humidity;BME280_pressure;Samples;Min_cycle;Max_cycle;Signal;HPM_P1;HPM_P2
2023/07/11 00:01:14;;;;;;;1.58;0.93;;;20.70;68.50;;;;;;5034144;28;20021;-79
2023/07/11 00:03:40;;;;;;;1.35;0.70;;;20.70;68.50;;;;;;5033684;28;20060;-79
2023/07/11 00:06:10;;;;;;;1.25;0.40;;;20.70;68.60;;;;;;5037060;28;20312;-79
2023/07/11 00:08:39;;;;;;;1.08;0.43;;;20.70;68.60;;;;;;5051077;28;20029;-79
2023/07/11 00:11:10;;;;;;;1.42;0.60;;;20.70;68.70;;;;;;5057215;28;20044;-80
2023/07/11 00:13:38;;;;;;;1.40;0.82;;;20.70;68.80;;;;;;5046418;28;20040;-79
2023/07/11 00:16:08;;;;;;;1.55;0.50;;;20.70;68.70;;;;;;5040726;28;20123;-80
2023/07/11 00:18:34;;;;;;;2.78;1.13;;;20.70;68.80;;;;;;5047672;28;20151;-79
2023/07/11 00:21:02;;;;;;;0.77;0.38;;;20.70;68.80;;;;;;5043634;28;20511;-77
2023/07/11 00:23:28;;;;;;;1.10;0.70;;;20.70;68.90;;;;;;5043486;28;20032;-78
2023/07/11 00:25:54;;;;;;;0.98;0.32;;;20.70;68.90;;;;;;5048284;28;20637;-78
2023/07/11 00:28:21;;;;;;;0.43;0.40;;;20.70;69.00;;;;;;5036650;28;20040;-78
2023/07/11 00:30:49;;;;;;;0.60;0.30;;;20.70;69.10;;;;;;5049972;28;20021;-78
2023/07/11 00:33:16;;;;;;;0.65;0.40;;;20.70;69.10;;;;;;5029430;28;20045;-78
2023/07/11 00:35:51;;;;;;;0.98;0.40;;;20.70;69.10;;;;;;5016562;28;20018;-79
2023/07/11 00:38:30;;;;;;;0.43;0.30;;;20.60;69.10;;;;;;5024670;28;20207;-79
2023/07/11 00:40:57;;;;;;;0.80;0.30;;;20.60;69.10;;;;;;5037632;28;20110;-78
2023/07/11 00:43:27;;;;;;;0.77;0.52;;;20.60;69.20;;;;;;5029346;28;20113;-78
2023/07/11 00:46:02;;;;;;;0.60;0.30;;;20.60;69.20;;;;;;5039353;28;20116;-79
2023/07/11 00:48:30;;;;;;;0.38;0.38;;;20.60;69.20;;;;;;5033824;28;20512;-78
2023/07/11 00:50:57;;;;;;;0.55;0.40;;;20.60;69.80;;;;;;5039049;28;20030;-79
2023/07/11 00:53:25;;;;;;;0.65;0.40;;;20.60;69.30;;;;;;5032590;28;20107;-80
2023/07/11 00:55:51;;;;;;;0.63;0.30;;;20.60;69.40;;;;;;5027149;28;20044;-79
2023/07/11 00:58:20;;;;;;;0.98;0.50;;;20.60;69.40;;;;;;5030369;28;20048;-79
2023/07/11 01:01:02;;;;;;;1.08;0.38;;;20.60;69.50;;;;;;5040298;28;20025;-79
2023/07/11 01:03:30;;;;;;;0.40;0.40;;;20.60;69.50;;;;;;5024096;28;20052;-79
2023/07/11 01:05:58;;;;;;;1.77;0.35;;;20.50;69.40;;;;;;5031490;28;20299;-79
2023/07/11 01:08:30;;;;;;;1.30;0.50;;;20.50;69.40;;;;;;5023493;28;20045;-79
2023/07/11 01:11:01;;;;;;;1.75;0.60;;;20.50;69.40;;;;;;5035913;28;20094;-79
2023/07/11 01:13:30;;;;;;;1.15;0.40;;;20.40;69.30;;;;;;5027422;28;20056;-79
2023/07/11 01:16:00;;;;;;;1.15;0.90;;;20.40;69.30;;;;;;5036154;28;20017;-80
2023/07/11 01:18:42;;;;;;;1.33;0.88;;;20.40;69.30;;;;;;5007856;28;20037;-80
2023/07/11 01:21:12;;;;;;;1.58;0.40;;;20.30;69.20;;;;;;5024056;28;20473;-81
2023/07/11 01:23:44;;;;;;;2.08;0.55;;;20.30;69.30;;;;;;5011060;28;20114;-79
2023/07/11 01:26:14;;;;;;;1.23;0.70;;;20.30;69.30;;;;;;5022635;28;20137;-80
2023/07/11 01:28:41;;;;;;;1.85;0.75;;;20.30;69.30;;;;;;5034652;28;20033;-80
2023/07/11 01:31:08;;;;;;;1.10;0.55;;;20.30;69.30;;;;;;5035051;28;20029;-80
2023/07/11 01:33:35;;;;;;;2.90;0.75;;;20.30;69.40;;;;;;5050312;28;20058;-80
2023/07/11 01:36:03;;;;;;;1.42;0.60;;;20.30;69.40;;;;;;5031132;28;20416;-81
2023/07/11 01:38:32;;;;;;;1.10;0.73;;;20.20;69.30;;;;;;5045656;28;20033;-80
2023/07/11 01:40:59;;;;;;;1.95;0.60;;;20.20;69.30;;;;;;5039416;28;20032;-80
2023/07/11 01:43:26;;;;;;;1.73;0.65;;;20.20;69.40;;;;;;5030890;28;20078;-80
2023/07/11 01:45:53;;;;;;;1.98;0.45;;;20.20;69.40;;;;;;5034781;28;20033;-80
2023/07/11 01:48:19;;;;;;;1.77;0.85;;;20.20;69.50;;;;;;5037185;28;20044;-80
2023/07/11 01:50:45;;;;;;;1.35;0.70;;;20.20;69.50;;;;;;5051474;28;20060;-80
2023/07/11 01:53:11;;;;;;;1.20;0.70;;;20.10;69.40;;;;;;5033671;28;20040;-80
2023/07/11 01:55:38;;;;;;;2.67;0.73;;;20.10;69.40;;;;;;5033094;28;20074;-80
2023/07/11 01:58:05;;;;;;;1.65;0.98;;;20.10;69.50;;;;;;5026876;28;20028;-80
2023/07/11 02:00:34;;;;;;;2.33;0.90;;;20.10;69.50;;;;;;5047027;28;20150;-80
2023/07/11 02:03:01;;;;;;;2.65;0.90;;;20.10;69.60;;;;;;5045612;28;20455;-80
2023/07/11 02:05:27;;;;;;;3.10;0.98;;;20.10;69.60;;;;;;5053183;28;20072;-79
2023/07/11 02:07:54;;;;;;;4.70;1.55;;;20.10;69.60;;;;;;5042999;28;20040;-79
2023/07/11 02:10:20;;;;;;;2.63;0.93;;;20.10;69.70;;;;;;5047300;28;20029;-79
2023/07/11 02:12:46;;;;;;;3.08;1.05;;;20.00;69.60;;;;;;5039653;28;20129;-81
2023/07/11 02:15:13;;;;;;;3.78;1.35;;;20.00;69.60;;;;;;5057426;28;20052;-81
2023/07/11 02:17:39;;;;;;;3.40;1.00;;;20.00;69.60;;;;;;5024190;28;20036;-81
2023/07/11 02:20:07;;;;;;;5.95;1.40;;;20.00;69.60;;;;;;5064400;28;20032;-80
2023/07/11 02:22:33;;;;;;;4.47;1.33;;;20.00;69.60;;;;;;5043198;28;20033;-80
2023/07/11 02:25:00;;;;;;;3.90;1.23;;;19.90;69.40;;;;;;5047990;28;20480;-80
2023/07/11 02:27:26;;;;;;;4.18;1.20;;;19.90;69.40;;;;;;5052985;28;20036;-81
2023/07/11 02:29:53;;;;;;;4.13;1.75;;;19.90;69.50;;;;;;5048546;28;20553;-81
2023/07/11 02:32:19;;;;;;;2.88;1.13;;;19.90;69.40;;;;;;5034957;28;20054;-80
2023/07/11 02:34:49;;;;;;;7.30;1.60;;;19.90;69.50;;;;;;5059217;28;20033;-80
2023/07/11 02:37:15;;;;;;;5.00;1.50;;;19.90;69.50;;;;;;5034916;28;20428;-80
2023/07/11 02:39:43;;;;;;;6.65;1.75;;;19.80;69.40;;;;;;5045874;28;20033;-81
2023/07/11 02:42:09;;;;;;;3.63;1.55;;;19.80;69.40;;;;;;5047669;28;20036;-81
2023/07/11 02:44:35;;;;;;;4.15;1.38;;;19.80;70.00;;;;;;5046187;28;20484;-80
2023/07/11 02:47:01;;;;;;;4.50;1.63;;;19.80;69.40;;;;;;5051531;28;20174;-79
2023/07/11 02:49:27;;;;;;;4.97;1.80;;;19.80;69.40;;;;;;5030827;28;20032;-79
2023/07/11 02:51:53;;;;;;;4.85;1.70;;;19.70;69.30;;;;;;5051758;28;20021;-79
2023/07/11 02:54:19;;;;;;;5.18;1.90;;;19.70;69.30;;;;;;5011856;28;20029;-78
2023/07/11 02:56:45;;;;;;;4.40;1.55;;;19.70;69.30;;;;;;5035970;28;20029;-79
2023/07/11 02:59:11;;;;;;;4.85;1.60;;;19.70;69.40;;;;;;5048251;28;20071;-79
2023/07/11 03:01:37;;;;;;;3.63;1.92;;;19.70;69.40;;;;;;5027996;28;20079;-79
2023/07/11 03:04:03;;;;;;;4.78;1.20;;;19.60;69.20;;;;;;5046878;28;20378;-79
2023/07/11 03:06:29;;;;;;;3.97;1.65;;;19.60;69.30;;;;;;5044649;28;20465;-80
2023/07/11 03:08:55;;;;;;;4.32;1.95;;;19.60;69.30;;;;;;5055580;28;20083;-80
2023/07/11 03:11:21;;;;;;;3.67;1.80;;;19.60;69.40;;;;;;5016976;28;20475;-80
2023/07/11 03:13:47;;;;;;;3.97;1.33;;;19.50;69.20;;;;;;5043898;28;20082;-79
2023/07/11 03:16:13;;;;;;;4.05;1.83;;;19.50;69.30;;;;;;5049940;28;20082;-83
2023/07/11 03:18:39;;;;;;;4.18;1.40;;;19.50;69.30;;;;;;5014701;28;20068;-79
2023/07/11 03:21:05;;;;;;;2.47;1.40;;;19.50;69.40;;;;;;5050399;28;20032;-84
2023/07/11 03:23:31;;;;;;;3.65;1.30;;;19.50;69.40;;;;;;5049026;28;20036;-80
2023/07/11 03:25:57;;;;;;;6.05;2.30;;;19.40;69.20;;;;;;5053022;28;20480;-80
2023/07/11 03:28:24;;;;;;;4.82;1.58;;;19.40;69.30;;;;;;5044135;28;20027;-82
2023/07/11 03:30:51;;;;;;;2.88;1.30;;;19.40;69.30;;;;;;5046624;28;20748;-83
2023/07/11 03:33:17;;;;;;;3.05;1.48;;;19.40;69.30;;;;;;5065260;28;20389;-82
2023/07/11 03:35:49;;;;;;;4.68;1.35;;;19.30;69.20;;;;;;5044773;28;20314;-84
2023/07/11 03:38:15;;;;;;;3.22;1.38;;;19.30;69.30;;;;;;5036134;28;20060;-80
2023/07/11 03:40:41;;;;;;;2.65;1.50;;;19.30;69.30;;;;;;5043897;28;20555;-83
2023/07/11 03:43:06;;;;;;;3.67;1.50;;;19.20;69.40;;;;;;5048610;28;20036;-80
2023/07/11 03:45:32;;;;;;;1.63;1.20;;;19.20;69.20;;;;;;5038026;28;20040;-80
2023/07/11 03:47:59;;;;;;;3.00;1.30;;;19.20;69.30;;;;;;5049941;28;20452;-80
2023/07/11 03:50:25;;;;;;;3.08;1.70;;;19.10;69.10;;;;;;5046094;28;20032;-80
2023/07/11 03:52:51;;;;;;;5.45;1.65;;;19.10;69.20;;;;;;5059270;28;20378;-80
2023/07/11 03:55:20;;;;;;;3.90;1.40;;;19.10;69.20;;;;;;5041117;28;20035;-80
2023/07/11 03:57:46;;;;;;;5.03;2.40;;;19.00;69.00;;;;;;5038998;28;20036;-80
2023/07/11 04:00:12;;;;;;;2.55;1.27;;;19.00;69.10;;;;;;5050818;28;20557;-80
2023/07/11 04:02:41;;;;;;;3.63;1.42;;;19.00;69.10;;;;;;5047998;28;20480;-80
2023/07/11 04:05:07;;;;;;;5.22;2.05;;;19.00;69.20;;;;;;5058890;28;20599;-80
2023/07/11 04:07:33;;;;;;;4.55;2.10;;;18.90;69.00;;;;;;5048806;28;20037;-80
2023/07/11 04:09:59;;;;;;;3.38;1.55;;;18.90;69.10;;;;;;5050469;28;20025;-79
2023/07/11 04:12:25;;;;;;;2.83;1.63;;;18.90;69.20;;;;;;5048721;28;20071;-80
2023/07/11 04:14:51;;;;;;;5.03;1.60;;;18.80;69.10;;;;;;5052662;28;20033;-80
2023/07/11 04:17:17;;;;;;;2.40;1.50;;;18.80;69.10;;;;;;5038785;28;20102;-80
2023/07/11 04:19:44;;;;;;;5.10;1.88;;;18.80;69.20;;;;;;5047513;28;20025;-81
2023/07/11 04:22:10;;;;;;;3.47;1.80;;;18.80;69.20;;;;;;5047808;28;20649;-80
2023/07/11 04:24:36;;;;;;;5.75;2.00;;;18.80;69.20;;;;;;5044350;28;20051;-79
2023/07/11 04:27:02;;;;;;;5.50;1.60;;;18.70;69.00;;;;;;5049747;28;20043;-79
2023/07/11 04:29:28;;;;;;;1.98;1.40;;;18.70;69.00;;;;;;5056494;28;20037;-80
2023/07/11 04:31:55;;;;;;;3.75;1.98;;;18.70;69.00;;;;;;5054050;28;20051;-82
2023/07/11 04:34:21;;;;;;;2.83;1.52;;;18.70;69.10;;;;;;5043858;28;20110;-79
2023/07/11 04:36:47;;;;;;;3.40;1.60;;;18.70;69.00;;;;;;5050124;28;20547;-79
2023/07/11 04:39:13;;;;;;;4.07;1.67;;;18.70;69.00;;;;;;5023358;28;20082;-81
2023/07/11 04:41:40;;;;;;;2.97;1.30;;;18.70;69.00;;;;;;5041157;28;20024;-80
2023/07/11 04:44:06;;;;;;;4.65;1.75;;;18.70;69.00;;;;;;5043968;28;20079;-80
2023/07/11 04:46:32;;;;;;;2.53;1.65;;;18.70;69.00;;;;;;5046838;28;20044;-82
2023/07/11 04:48:59;;;;;;;5.18;1.70;;;18.70;69.00;;;;;;5031657;28;20047;-81
2023/07/11 04:51:25;;;;;;;4.97;2.20;;;18.70;69.00;;;;;;5058453;28;20040;-81
2023/07/11 04:53:51;;;;;;;2.45;1.35;;;18.70;69.00;;;;;;5056289;28;20091;-81
2023/07/11 04:56:17;;;;;;;3.78;1.60;;;18.80;69.20;;;;;;5036467;28;20075;-80
2023/07/11 04:58:43;;;;;;;3.40;2.03;;;18.80;69.10;;;;;;5055091;28;20092;-80
2023/07/11 05:01:12;;;;;;;3.47;1.73;;;18.80;69.10;;;;;;5061515;28;20040;-81
2023/07/11 05:03:38;;;;;;;4.93;1.30;;;18.80;69.60;;;;;;5017876;28;20071;-81
2023/07/11 05:06:06;;;;;;;4.65;1.50;;;18.80;69.00;;;;;;5026570;28;20094;-80
2023/07/11 05:08:32;;;;;;;5.88;2.17;;;18.80;69.00;;;;;;5045851;28;20037;-83
2023/07/11 05:11:02;;;;;;;2.80;1.65;;;18.80;68.90;;;;;;5028902;28;20045;-80
2023/07/11 05:13:30;;;;;;;5.90;1.90;;;18.80;68.90;;;;;;5045517;28;20082;-80
2023/07/11 05:16:01;;;;;;;5.05;1.90;;;18.80;68.80;;;;;;5055498;28;20039;-78
2023/07/11 05:18:27;;;;;;;4.30;1.67;;;18.90;69.00;;;;;;5057209;28;20060;-81
2023/07/11 05:20:54;;;;;;;4.18;1.77;;;18.90;68.90;;;;;;5039223;28;20052;-80
2023/07/11 05:23:23;;;;;;;3.97;1.48;;;18.90;68.90;;;;;;5052277;28;20044;-81
2023/07/11 05:25:50;;;;;;;4.57;2.15;;;19.00;68.90;;;;;;5026392;28;20295;-78
2023/07/11 05:28:16;;;;;;;3.60;2.30;;;19.00;68.80;;;;;;5036364;28;20051;-79
2023/07/11 05:30:43;;;;;;;3.13;1.60;;;19.10;68.90;;;;;;5028707;28;20033;-80
2023/07/11 05:33:09;;;;;;;5.15;2.13;;;19.10;68.80;;;;;;5018621;28;20076;-80
2023/07/11 05:35:37;;;;;;;6.07;2.05;;;19.20;68.90;;;;;;5013874;28;20466;-81
2023/07/11 05:38:03;;;;;;;4.20;2.10;;;19.30;69.00;;;;;;5046677;28;20175;-82
2023/07/11 05:40:33;;;;;;;3.05;1.83;;;19.30;68.90;;;;;;5032105;28;20032;-81
2023/07/11 05:42:59;;;;;;;6.03;1.92;;;19.40;68.90;;;;;;5049312;28;20166;-80
2023/07/11 05:45:25;;;;;;;4.28;1.85;;;19.40;68.80;;;;;;5036103;28;20043;-81
2023/07/11 05:47:51;;;;;;;4.43;2.03;;;19.50;68.80;;;;;;5026726;28;20571;-81
2023/07/11 05:50:21;;;;;;;5.70;2.25;;;19.60;68.90;;;;;;5015319;28;20195;-82
2023/07/11 05:52:47;;;;;;;4.95;2.53;;;19.60;68.70;;;;;;5027767;28;20043;-82
2023/07/11 05:55:13;;;;;;;4.35;1.88;;;19.70;68.70;;;;;;5048705;28;20341;-82
2023/07/11 05:57:39;;;;;;;4.68;2.33;;;19.80;68.70;;;;;;5043312;28;20032;-81
2023/07/11 06:00:09;;;;;;;5.82;2.63;;;19.80;68.50;;;;;;5036737;28;20028;-81
2023/07/11 06:02:38;;;;;;;;;;;19.90;68.50;;;;;;5051262;28;20056;-80
2023/07/11 06:05:04;;;;;;;5.10;1.70;;;19.90;68.30;;;;;;5043442;28;20003;-85
2023/07/11 06:07:31;;;;;;;4.63;2.00;;;20.00;68.50;;;;;;5045612;28;20123;-80
2023/07/11 06:09:58;;;;;;;6.05;1.88;;;19.90;68.30;;;;;;5050773;28;20618;-80
2023/07/11 06:12:23;;;;;;;5.85;1.83;;;20.00;68.50;;;;;;5036640;28;20055;-79
2023/07/11 06:14:50;;;;;;;4.72;2.17;;;20.00;68.50;;;;;;5040405;28;20043;-80
2023/07/11 06:17:19;;;;;;;4.32;1.67;;;20.10;68.60;;;;;;5030948;28;20043;-81
2023/07/11 06:19:45;;;;;;;7.25;1.88;;;20.10;68.50;;;;;;5041653;28;20032;-79
2023/07/11 06:22:12;;;;;;;8.80;2.78;;;20.10;68.30;;;;;;5039075;28;20036;-81
2023/07/11 06:24:39;;;;;;;7.88;3.22;;;20.20;68.50;;;;;;5054524;28;20495;-77
2023/07/11 06:27:05;;;;;;;6.03;2.22;;;20.20;68.90;;;;;;5047165;28;20095;-79
2023/07/11 06:29:31;;;;;;;5.07;2.33;;;20.30;68.50;;;;;;5015798;28;20273;-78
2023/07/11 06:31:57;;;;;;;3.72;2.03;;;20.30;68.50;;;;;;5044750;28;20048;-79
2023/07/11 06:34:24;;;;;;;5.32;2.00;;;20.30;68.40;;;;;;5036663;28;20040;-79
2023/07/11 06:36:49;;;;;;;4.50;1.80;;;20.30;68.30;;;;;;5038986;28;20036;-78
2023/07/11 06:39:15;;;;;;;3.33;1.83;;;20.30;68.30;;;;;;5032675;28;20482;-79
2023/07/11 06:41:41;;;;;;;5.47;2.30;;;20.40;68.40;;;;;;5047426;28;20374;-79
2023/07/11 06:44:08;;;;;;;3.70;2.03;;;20.40;68.30;;;;;;5049794;28;20028;-80
2023/07/11 06:46:35;;;;;;;4.43;2.28;;;20.50;68.40;;;;;;5037522;28;20076;-80
2023/07/11 06:49:04;;;;;;;4.30;2.38;;;20.60;68.40;;;;;;5056874;28;20074;-81
2023/07/11 06:51:30;;;;;;;4.90;2.45;;;20.60;68.20;;;;;;5055967;28;20032;-81
2023/07/11 06:53:59;;;;;;;7.18;2.40;;;20.70;68.20;;;;;;5019851;28;20174;-78
2023/07/11 06:56:26;;;;;;;8.38;2.47;;;20.80;68.20;;;;;;5038533;28;20496;-78
2023/07/11 06:58:55;;;;;;;3.08;1.83;;;20.90;68.20;;;;;;5009639;28;20041;-78
2023/07/11 07:01:22;;;;;;;5.97;1.95;;;21.00;68.20;;;;;;5030516;28;20037;-80
2023/07/11 07:03:49;;;;;;;3.72;1.80;;;21.10;68.20;;;;;;5032904;28;20452;-79
2023/07/11 07:06:17;;;;;;;5.35;2.03;;;21.20;68.10;;;;;;5039980;28;20072;-80
2023/07/11 07:08:46;;;;;;;5.40;2.20;;;21.40;68.20;;;;;;5018153;28;20098;-81
2023/07/11 07:11:12;;;;;;;5.05;2.25;;;21.50;68.00;;;;;;5044887;28;20029;-78
2023/07/11 07:13:38;;;;;;;3.72;2.03;;;21.70;67.90;;;;;;5020750;28;20053;-79
2023/07/11 07:16:05;;;;;;;4.70;2.25;;;21.90;67.80;;;;;;5017467;28;20028;-78
2023/07/11 07:18:35;;;;;;;4.70;2.22;;;22.10;67.70;;;;;;5047600;28;20128;-79
2023/07/11 07:21:03;;;;;;;5.75;2.42;;;22.20;67.50;;;;;;5051081;28;20238;-79
2023/07/11 07:23:35;;;;;;;5.03;2.30;;;22.30;67.40;;;;;;5040354;28;20109;-78
2023/07/11 07:26:05;;;;;;;4.43;2.22;;;22.40;67.40;;;;;;5038787;28;20127;-78
2023/07/11 07:28:37;;;;;;;5.07;2.10;;;22.40;67.30;;;;;;5042384;28;20119;-78
2023/07/11 07:31:05;;;;;;;4.43;2.00;;;22.50;67.40;;;;;;5031316;28;20041;-78
2023/07/11 07:33:32;;;;;;;7.63;2.40;;;22.60;67.40;;;;;;5030355;28;20052;-78
2023/07/11 07:36:07;;;;;;;5.00;2.30;;;22.60;67.30;;;;;;5037196;28;20431;-77
2023/07/11 07:38:33;;;;;;;7.45;3.58;;;22.70;67.30;;;;;;5037668;28;20040;-79
2023/07/11 07:41:02;;;;;;;7.32;2.70;;;22.70;67.20;;;;;;5040848;28;20040;-79
2023/07/11 07:43:29;;;;;;;8.55;3.45;;;22.80;67.20;;;;;;5039887;28;20128;-79
2023/07/11 07:45:57;;;;;;;4.72;2.47;;;22.80;67.00;;;;;;5028073;28;20492;-77
2023/07/11 07:48:25;;;;;;;9.05;3.17;;;23.00;67.20;;;;;;5045818;28;20039;-82
2023/07/11 07:51:13;;;;;;;11.93;3.38;;;23.00;66.90;;;;;;5041003;28;20390;-81
2023/07/11 07:53:39;;;;;;;8.18;2.60;;;23.10;66.90;;;;;;5021234;28;20052;-79
2023/07/11 07:56:07;;;;;;;7.30;2.38;;;23.20;66.80;;;;;;5040413;28;20021;-80
2023/07/11 07:58:33;;;;;;;6.22;2.65;;;23.30;66.90;;;;;;5023720;28;20045;-78
2023/07/11 08:00:59;;;;;;;7.78;2.65;;;23.30;66.70;;;;;;5041508;28;20040;-77
2023/07/11 08:03:25;;;;;;;6.50;3.28;;;23.30;66.60;;;;;;5033759;28;20033;-79
2023/07/11 08:05:55;;;;;;;7.40;2.80;;;23.40;66.60;;;;;;5033155;28;20037;-79
2023/07/11 08:08:22;;;;;;;7.43;2.90;;;23.50;66.70;;;;;;5045046;28;20047;-79
2023/07/11 08:10:48;;;;;;;7.97;2.17;;;23.50;66.50;;;;;;5034317;28;20040;-81
2023/07/11 08:13:14;;;;;;;9.55;3.85;;;23.60;66.40;;;;;;5035125;28;20056;-81
2023/07/11 08:15:42;;;;;;;5.75;3.00;;;23.70;66.40;;;;;;5050167;28;20147;-85
2023/07/11 08:18:11;;;;;;;7.50;2.60;;;23.80;66.40;;;;;;5040468;28;20056;-82
2023/07/11 08:20:40;;;;;;;6.88;2.63;;;23.90;66.30;;;;;;5041336;28;20377;-81
2023/07/11 08:23:06;;;;;;;7.05;2.83;;;24.00;66.20;;;;;;5045576;28;20040;-79
2023/07/11 08:25:33;;;;;;;5.72;2.35;;;24.10;66.10;;;;;;5039658;28;20450;-79
2023/07/11 08:27:59;;;;;;;4.25;2.30;;;24.20;66.20;;;;;;5055376;28;20465;-80
2023/07/11 08:30:26;;;;;;;6.95;2.83;;;24.20;66.00;;;;;;5022687;28;20072;-80
2023/07/11 08:32:51;;;;;;;5.45;2.33;;;24.30;66.00;;;;;;5051504;28;20056;-80
2023/07/11 08:35:18;;;;;;;9.00;2.63;;;24.40;65.90;;;;;;5040564;28;20530;-79
2023/07/11 08:37:49;;;;;;;6.53;2.17;;;24.50;65.90;;;;;;5014771;28;20155;-79
2023/07/11 08:40:23;;;;;;;5.35;2.10;;;24.60;65.80;;;;;;5018227;28;20028;-79
2023/07/11 08:42:49;;;;;;;7.35;2.78;;;24.70;65.60;;;;;;5043568;28;20553;-79
2023/07/11 08:45:32;;;;;;;6.57;2.08;;;24.80;65.60;;;;;;5042002;28;20033;-79
2023/07/11 08:48:11;;;;;;;6.55;2.63;;;24.90;65.40;;;;;;5048560;28;20076;-81
2023/07/11 08:50:51;;;;;;;8.80;2.28;;;25.00;65.40;;;;;;5049676;28;20024;-80
2023/07/11 08:53:29;;;;;;;7.53;2.90;;;25.00;65.10;;;;;;5048571;28;20095;-81
2023/07/11 08:56:10;;;;;;;7.95;2.45;;;25.10;65.40;;;;;;5023997;28;20036;-81
2023/07/11 08:58:39;;;;;;;7.30;2.25;;;25.10;64.60;;;;;;5041416;28;20519;-81
2023/07/11 09:01:34;;;;;;;6.38;2.45;;;25.10;64.60;;;;;;5040886;28;20500;-79
2023/07/11 09:04:01;;;;;;;6.18;2.45;;;25.20;64.40;;;;;;5046320;28;20123;-81
2023/07/11 09:06:37;;;;;;;5.13;2.60;;;25.20;64.30;;;;;;5035824;28;20029;-80
2023/07/11 09:09:04;;;;;;;8.02;2.97;;;25.30;64.10;;;;;;5025241;28;20489;-81
2023/07/11 09:12:01;;;;;;;7.43;2.97;;;25.40;64.10;;;;;;5031434;28;20041;-81
2023/07/11 09:14:48;;;;;;;8.57;2.95;;;25.50;63.60;;;;;;5046990;28;20542;-80
2023/07/11 09:17:21;;;;;;;6.95;2.55;;;25.60;63.40;;;;;;5043487;28;20039;-80
2023/07/11 09:19:47;;;;;;;5.22;2.10;;;25.80;63.60;;;;;;5041954;28;20194;-80
2023/07/11 09:22:26;;;;;;;7.22;2.20;;;26.00;62.70;;;;;;5041779;28;20063;-81
2023/07/11 09:25:07;;;;;;;6.60;2.15;;;26.10;62.20;;;;;;5025291;28;20032;-82
2023/07/11 09:27:55;;;;;;;5.72;2.28;;;26.20;62.10;;;;;;5032077;28;20041;-79
2023/07/11 09:30:27;;;;;;;8.57;2.53;;;26.20;61.90;;;;;;5041856;28;20543;-78
2023/07/11 09:32:57;;;;;;;5.97;2.40;;;26.20;61.70;;;;;;5037837;28;20045;-77
2023/07/11 09:35:28;;;;;;;6.47;2.38;;;26.20;61.70;;;;;;5032202;28;20040;-78
2023/07/11 09:38:07;;;;;;;5.18;2.17;;;26.20;61.60;;;;;;5038092;28;20079;-78
2023/07/11 09:41:09;;;;;;;5.97;2.65;;;26.30;61.60;;;;;;5044264;28;20066;-77
2023/07/11 09:43:35;;;;;;;4.88;2.40;;;26.30;62.10;;;;;;4978538;28;20049;-77
2023/07/11 09:46:01;;;;;;;6.35;2.78;;;26.40;61.50;;;;;;5026160;28;20086;-77
2023/07/11 09:48:34;;;;;;;5.28;2.10;;;26.50;61.40;;;;;;5027077;28;20028;-78
2023/07/11 09:51:19;;;;;;;4.65;2.10;;;26.60;61.20;;;;;;5045097;28;20051;-78
2023/07/11 09:53:46;;;;;;;5.72;2.42;;;26.70;61.10;;;;;;5031733;28;20187;-78
2023/07/11 09:56:17;;;;;;;4.22;2.08;;;26.70;60.90;;;;;;5047263;28;20070;-79
2023/07/11 09:58:57;;;;;;;5.03;2.15;;;26.80;60.70;;;;;;5033952;28;20033;-77
2023/07/11 10:01:38;;;;;;;7.60;2.50;;;26.90;60.70;;;;;;5031106;28;20025;-77
2023/07/11 10:04:17;;;;;;;4.88;2.28;;;26.90;60.50;;;;;;5046025;28;20052;-78
2023/07/11 10:06:58;;;;;;;4.68;2.38;;;27.00;60.50;;;;;;5035128;28;20414;-77
2023/07/11 10:09:42;;;;;;;8.18;2.35;;;27.00;60.40;;;;;;5055028;28;20207;-79
2023/07/11 10:12:15;;;;;;;3.65;2.15;;;27.00;60.40;;;;;;5033281;28;20086;-79
2023/07/11 10:14:44;;;;;;;3.40;2.08;;;27.00;60.30;;;;;;5033452;28;20039;-78
2023/07/11 10:17:25;;;;;;;5.10;2.15;;;27.00;60.30;;;;;;5032002;28;20546;-78
2023/07/11 10:19:57;;;;;;;5.53;2.38;;;27.00;60.10;;;;;;5049909;28;20140;-78
2023/07/11 10:22:26;;;;;;;7.47;2.05;;;27.10;60.20;;;;;;5050401;28;20524;-78
2023/07/11 10:25:15;;;;;;;6.35;2.28;;;27.10;60.10;;;;;;5049527;28;20028;-79
2023/07/11 10:27:44;;;;;;;5.05;2.17;;;27.20;60.00;;;;;;5049639;28;20044;-78
2023/07/11 10:30:18;;;;;;;6.10;2.30;;;27.30;60.00;;;;;;5057042;28;20523;-78
2023/07/11 10:32:59;;;;;;;4.25;1.55;;;27.30;59.80;;;;;;5033414;28;20098;-78
2023/07/11 10:35:30;;;;;;;5.70;2.65;;;27.40;59.70;;;;;;5045969;28;20120;-78
2023/07/11 10:38:11;;;;;;;4.25;2.10;;;27.30;59.50;;;;;;5047424;28;20040;-83
2023/07/11 10:40:43;;;;;;;4.03;1.92;;;27.40;59.50;;;;;;5035617;28;20995;-79
2023/07/11 10:43:29;;;;;;;4.97;2.20;;;27.40;59.40;;;;;;5048645;28;20399;-79
2023/07/11 10:46:27;;;;;;;6.10;2.33;;;27.50;59.20;;;;;;5045500;28;20028;-78
2023/07/11 10:48:56;;;;;;;5.13;2.40;;;27.50;59.20;;;;;;5002247;28;20036;-77
2023/07/11 10:51:29;;;;;;;6.68;3.13;;;27.60;59.20;;;;;;5047246;28;20041;-78
2023/07/11 10:53:59;;;;;;;5.70;2.40;;;27.60;59.00;;;;;;5033753;28;20054;-78
2023/07/11 10:56:28;;;;;;;7.75;2.78;;;27.70;59.00;;;;;;5029168;28;20230;-83
2023/07/11 10:58:55;;;;;;;4.97;2.40;;;27.70;58.90;;;;;;5029855;28;20041;-78
2023/07/11 11:01:39;;;;;;;6.43;2.75;;;27.80;58.90;;;;;;5038552;28;20032;-78
2023/07/11 11:04:33;;;;;;;5.88;2.75;;;27.80;58.60;;;;;;5042826;28;20033;-79
2023/07/11 11:07:22;;;;;;;7.60;3.00;;;27.90;58.50;;;;;;5039017;28;20596;-78
2023/07/11 11:10:07;;;;;;;5.28;2.90;;;28.00;58.40;;;;;;5047945;28;20199;-78
2023/07/11 11:12:42;;;;;;;4.47;2.53;;;28.00;58.30;;;;;;5040788;28;20036;-78
2023/07/11 11:15:13;;;;;;;4.85;2.28;;;28.10;58.20;;;;;;5018450;28;20059;-79
2023/07/11 11:17:52;;;;;;;4.50;2.03;;;28.20;58.10;;;;;;5045704;28;20295;-78
2023/07/11 11:20:51;;;;;;;3.47;1.80;;;28.40;58.00;;;;;;5045585;28;20032;-78
2023/07/11 11:23:49;;;;;;;6.13;2.38;;;28.50;57.60;;;;;;5045511;28;20629;-79
2023/07/11 11:26:34;;;;;;;6.57;2.85;;;28.70;57.50;;;;;;5047719;28;20044;-78
2023/07/11 11:29:15;;;;;;;4.45;2.10;;;29.00;57.30;;;;;;5045818;28;20518;-78
2023/07/11 11:32:33;;;;;;;5.25;2.42;;;29.10;57.00;;;;;;5023258;28;20049;-78
2023/07/11 11:35:31;;;;;;;5.25;2.55;;;29.40;56.60;;;;;;4961606;28;20049;-79
2023/07/11 11:38:33;;;;;;;5.38;2.20;;;29.60;56.20;;;;;;4976848;28;20030;-79
2023/07/11 11:41:03;;;;;;;4.05;2.08;;;29.80;55.90;;;;;;5044375;28;20448;-79
2023/07/11 11:43:32;;;;;;;7.53;2.75;;;29.90;55.70;;;;;;5018329;28;20387;-78
2023/07/11 11:46:02;;;;;;;5.50;2.28;;;30.00;55.60;;;;;;5050143;28;20036;-78
2023/07/11 11:48:29;;;;;;;5.10;2.20;;;29.90;55.20;;;;;;5042590;28;20037;-78
2023/07/11 11:50:57;;;;;;;5.95;2.63;;;29.90;55.30;;;;;;5046579;28;20303;-78
2023/07/11 11:53:34;;;;;;;4.57;2.78;;;29.80;55.20;;;;;;5046513;28;20420;-79
2023/07/11 11:56:05;;;;;;;3.97;2.00;;;29.80;55.10;;;;;;5046240;28;20113;-79
2023/07/11 11:58:34;;;;;;;4.95;2.25;;;29.80;55.10;;;;;;5047677;28;20590;-80
2023/07/11 12:01:01;;;;;;;4.53;2.25;;;29.80;55.10;;;;;;5036224;28;20041;-79
2023/07/11 12:03:33;;;;;;;;;;;29.80;55.10;;;;;;5045564;28;20143;-79
2023/07/11 12:06:34;;;;;;;6.57;2.65;;;29.80;55.10;;;;;;5040481;28;19916;-79
2023/07/11 12:09:16;;;;;;;4.75;2.28;;;29.90;55.00;;;;;;5026396;28;20055;-80
2023/07/11 12:12:05;;;;;;;5.20;2.30;;;30.00;55.00;;;;;;5059424;28;20119;-78
2023/07/11 12:14:57;;;;;;;4.53;2.25;;;30.00;54.80;;;;;;5033451;28;20442;-79
2023/07/11 12:17:34;;;;;;;5.82;2.38;;;30.00;54.70;;;;;;5048294;28;20029;-79
2023/07/11 12:20:12;;;;;;;5.72;2.50;;;30.00;54.70;;;;;;5048032;28;20239;-80
2023/07/11 12:22:41;;;;;;;5.05;2.10;;;29.90;54.70;;;;;;5048502;28;20037;-78
2023/07/11 12:25:28;;;;;;;3.72;2.15;;;29.90;54.70;;;;;;5039634;28;20044;-79
2023/07/11 12:28:02;;;;;;;4.45;2.20;;;29.80;54.60;;;;;;5042248;28;20054;-79
2023/07/11 12:30:42;;;;;;;6.07;2.00;;;29.70;54.80;;;;;;5038954;28;20029;-79
2023/07/11 12:33:34;;;;;;;5.45;2.00;;;29.70;54.80;;;;;;5048631;28;20260;-78
2023/07/11 12:36:06;;;;;;;4.15;1.95;;;29.80;54.70;;;;;;5040042;28;20392;-78
2023/07/11 12:39:21;;;;;;;5.10;2.25;;;29.80;54.60;;;;;;5045347;28;20542;-78
2023/07/11 12:42:31;;;;;;;3.58;1.88;;;30.00;54.40;;;;;;5045657;28;20041;-78
2023/07/11 12:44:57;;;;;;;3.55;1.65;;;30.20;54.20;;;;;;5042546;28;20037;-79
2023/07/11 12:47:28;;;;;;;4.10;2.10;;;30.20;54.10;;;;;;5053913;28;20393;-79
2023/07/11 12:50:04;;;;;;;3.58;2.13;;;30.30;54.00;;;;;;5041361;28;20116;-79
2023/07/11 12:52:33;;;;;;;4.22;2.33;;;30.30;53.90;;;;;;5038665;28;20073;-79
2023/07/11 12:55:02;;;;;;;3.42;2.08;;;30.40;53.80;;;;;;5012767;28;20139;-79
2023/07/11 12:57:32;;;;;;;5.13;1.75;;;30.40;53.60;;;;;;5019279;28;20146;-79
2023/07/11 12:59:59;;;;;;;4.88;2.88;;;30.50;53.60;;;;;;5050960;28;20051;-79
2023/07/11 13:02:29;;;;;;;2.92;2.10;;;30.60;53.50;;;;;;5050378;28;20032;-79
2023/07/11 13:05:14;;;;;;;4.20;2.03;;;30.60;53.40;;;;;;5046093;28;20479;-79
2023/07/11 13:08:32;;;;;;;3.92;2.05;;;30.60;53.40;;;;;;5034037;28;20039;-77